sensor_id;sensor_type;location;lat;lon;timestamp;P1;durP1;ratioP1;P2;durP2;ratioP2
82352;SDS011;71954;47.430;18.920;2023-08-06T00:00:28;10.63;;;6.78;;
82352;SDS011;71954;47.430;18.920;2023-08-06T00:02:54;10.88;;;7.10;;
82352;SDS011;71954;47.430;18.920;2023-08-06T00:05:21;11.18;;;6.95;;
82352;SDS011;71954;47.430;18.920;2023-08-06T00:07:48;10.02;;;6.70;;
82352;SDS011;71954;47.430;18.920;2023-08-06T00:10:16;12.60;;;7.95;;
82352;SDS011;71954;47.430;18.920;2023-08-06T00:12:43;12.88;;;6.25;;
82352;SDS011;71954;47.430;18.920;2023-08-06T00:15:10;10.20;;;6.82;;
82352;SDS011;71954;47.430;18.920;2023-08-06T00:17:37;11.63;;;6.82;;
82352;SDS011;71954;47.430;18.920;2023-08-06T00:20:05;11.35;;;7.38;;
82352;SDS011;71954;47.430;18.920;2023-08-06T00:22:36;12.18;;;7.72;;
82352;SDS011;71954;47.430;18.920;2023-08-06T00:25:03;11.95;;;6.35;;
82352;SDS011;71954;47.430;18.920;2023-08-06T00:27:31;11.05;;;7.05;;
82352;SDS011;71954;47.430;18.920;2023-08-06T00:29:58;15.63;;;7.80;;
82352;SDS011;71954;47.430;18.920;2023-08-06T00:32:25;12.52;;;7.68;;
82352;SDS011;71954;47.430;18.920;2023-08-06T00:34:52;12.27;;;7.60;;
82352;SDS011;71954;47.430;18.920;2023-08-06T00:37:18;15.50;;;7.13;;
82352;SDS011;71954;47.430;18.920;2023-08-06T00:39:45;13.65;;;8.05;;
82352;SDS011;71954;47.430;18.920;2023-08-06T00:44:39;12.93;;;8.07;;
82352;SDS011;71954;47.430;18.920;2023-08-06T00:47:06;13.65;;;8.35;;
82352;SDS011;71954;47.430;18.920;2023-08-06T00:49:36;15.25;;;9.25;;
82352;SDS011;71954;47.430;18.920;2023-08-06T00:52:03;12.18;;;7.20;;
82352;SDS011;71954;47.430;18.920;2023-08-06T00:54:31;12.68;;;8.18;;
82352;SDS011;71954;47.430;18.920;2023-08-06T00:56:59;12.25;;;7.80;;
82352;SDS011;71954;47.430;18.920;2023-08-06T00:59:28;12.63;;;7.75;;
82352;SDS011;71954;47.430;18.920;2023-08-06T01:01:55;14.45;;;7.93;;
82352;SDS011;71954;47.430;18.920;2023-08-06T01:04:22;13.30;;;8.35;;
82352;SDS011;71954;47.430;18.920;2023-08-06T01:07:33;10.73;;;5.65;;
82352;SDS011;71954;47.430;18.920;2023-08-06T01:10:01;10.63;;;6.47;;
82352;SDS011;71954;47.430;18.920;2023-08-06T01:12:42;11.15;;;6.43;;
82352;SDS011;71954;47.430;18.920;2023-08-06T01:15:26;9.02;;;5.25;;
82352;SDS011;71954;47.430;18.920;2023-08-06T01:17:55;8.77;;;6.38;;
82352;SDS011;71954;47.430;18.920;2023-08-06T01:20:27;8.82;;;4.93;;
82352;SDS011;71954;47.430;18.920;2023-08-06T01:22:57;8.98;;;5.65;;
82352;SDS011;71954;47.430;18.920;2023-08-06T01:25:29;10.05;;;6.10;;
82352;SDS011;71954;47.430;18.920;2023-08-06T01:28:02;9.25;;;5.45;;
82352;SDS011;71954;47.430;18.920;2023-08-06T01:30:35;7.78;;;5.35;;
82352;SDS011;71954;47.430;18.920;2023-08-06T01:33:07;9.82;;;5.65;;
82352;SDS011;71954;47.430;18.920;2023-08-06T01:35:40;8.23;;;5.20;;
82352;SDS011;71954;47.430;18.920;2023-08-06T01:38:08;8.27;;;4.90;;
82352;SDS011;71954;47.430;18.920;2023-08-06T01:40:35;7.32;;;4.63;;
82352;SDS011;71954;47.430;18.920;2023-08-06T01:43:02;8.35;;;5.55;;
82352;SDS011;71954;47.430;18.920;2023-08-06T01:45:29;7.82;;;4.57;;
82352;SDS011;71954;47.430;18.920;2023-08-06T01:47:55;7.25;;;4.22;;
82352;SDS011;71954;47.430;18.920;2023-08-06T01:52:48;8.35;;;5.03;;
82352;SDS011;71954;47.430;18.920;2023-08-06T01:55:15;8.25;;;4.70;;
82352;SDS011;71954;47.430;18.920;2023-08-06T01:57:42;8.95;;;5.53;;
82352;SDS011;71954;47.430;18.920;2023-08-06T02:00:08;8.95;;;5.53;;
82352;SDS011;71954;47.430;18.920;2023-08-06T02:02:35;9.20;;;4.80;;
82352;SDS011;71954;47.430;18.920;2023-08-06T02:05:02;9.13;;;5.20;;
82352;SDS011;71954;47.430;18.920;2023-08-06T02:07:29;7.78;;;4.30;;
82352;SDS011;71954;47.430;18.920;2023-08-06T02:09:55;8.50;;;5.25;;
82352;SDS011;71954;47.430;18.920;2023-08-06T02:12:22;7.13;;;4.93;;
82352;SDS011;71954;47.430;18.920;2023-08-06T02:14:48;9.23;;;4.70;;
82352;SDS011;71954;47.430;18.920;2023-08-06T02:17:15;6.88;;;3.92;;
82352;SDS011;71954;47.430;18.920;2023-08-06T02:19:42;7.35;;;4.38;;
82352;SDS011;71954;47.430;18.920;2023-08-06T02:22:09;5.50;;;3.72;;
82352;SDS011;71954;47.430;18.920;2023-08-06T02:24:36;6.43;;;3.88;;
82352;SDS011;71954;47.430;18.920;2023-08-06T02:27:02;7.32;;;4.22;;
82352;SDS011;71954;47.430;18.920;2023-08-06T02:29:29;5.72;;;3.28;;
82352;SDS011;71954;47.430;18.920;2023-08-06T02:31:55;6.20;;;3.53;;
82352;SDS011;71954;47.430;18.920;2023-08-06T02:36:49;7.38;;;4.13;;
82352;SDS011;71954;47.430;18.920;2023-08-06T02:39:15;6.38;;;4.22;;
82352;SDS011;71954;47.430;18.920;2023-08-06T02:41:42;6.13;;;4.40;;
82352;SDS011;71954;47.430;18.920;2023-08-06T02:44:08;8.25;;;3.60;;
82352;SDS011;71954;47.430;18.920;2023-08-06T02:46:35;6.00;;;3.88;;
82352;SDS011;71954;47.430;18.920;2023-08-06T02:49:01;6.50;;;3.65;;
82352;SDS011;71954;47.430;18.920;2023-08-06T02:51:28;6.50;;;3.72;;
82352;SDS011;71954;47.430;18.920;2023-08-06T02:53:55;6.22;;;3.70;;
82352;SDS011;71954;47.430;18.920;2023-08-06T02:56:21;12.55;;;4.30;;
82352;SDS011;71954;47.430;18.920;2023-08-06T02:58:48;6.75;;;4.43;;
82352;SDS011;71954;47.430;18.920;2023-08-06T03:01:15;6.95;;;4.20;;
82352;SDS011;71954;47.430;18.920;2023-08-06T03:03:42;5.45;;;3.25;;
82352;SDS011;71954;47.430;18.920;2023-08-06T03:06:08;5.30;;;3.15;;
82352;SDS011;71954;47.430;18.920;2023-08-06T03:08:35;6.38;;;3.45;;
82352;SDS011;71954;47.430;18.920;2023-08-06T03:11:02;7.68;;;3.40;;
82352;SDS011;71954;47.430;18.920;2023-08-06T03:13:28;6.53;;;3.90;;
82352;SDS011;71954;47.430;18.920;2023-08-06T03:15:56;6.47;;;3.78;;
82352;SDS011;71954;47.430;18.920;2023-08-06T03:18:24;7.72;;;4.55;;
82352;SDS011;71954;47.430;18.920;2023-08-06T03:20:52;8.55;;;4.10;;
82352;SDS011;71954;47.430;18.920;2023-08-06T03:23:18;5.97;;;3.75;;
82352;SDS011;71954;47.430;18.920;2023-08-06T03:25:45;6.53;;;3.78;;
82352;SDS011;71954;47.430;18.920;2023-08-06T03:28:12;8.05;;;4.07;;
82352;SDS011;71954;47.430;18.920;2023-08-06T03:30:39;7.65;;;4.53;;
82352;SDS011;71954;47.430;18.920;2023-08-06T03:33:06;6.68;;;4.63;;
82352;SDS011;71954;47.430;18.920;2023-08-06T03:37:59;6.40;;;3.83;;
82352;SDS011;71954;47.430;18.920;2023-08-06T03:40:26;6.07;;;3.20;;
82352;SDS011;71954;47.430;18.920;2023-08-06T03:42:52;8.45;;;3.72;;
82352;SDS011;71954;47.430;18.920;2023-08-06T03:45:19;6.72;;;4.30;;
82352;SDS011;71954;47.430;18.920;2023-08-06T03:47:45;5.57;;;3.25;;
82352;SDS011;71954;47.430;18.920;2023-08-06T03:50:12;6.82;;;3.65;;
82352;SDS011;71954;47.430;18.920;2023-08-06T03:55:05;6.88;;;4.07;;
82352;SDS011;71954;47.430;18.920;2023-08-06T03:57:32;5.60;;;3.42;;
82352;SDS011;71954;47.430;18.920;2023-08-06T03:59:58;6.60;;;3.55;;
82352;SDS011;71954;47.430;18.920;2023-08-06T04:02:25;7.85;;;4.68;;
82352;SDS011;71954;47.430;18.920;2023-08-06T04:04:52;7.35;;;3.80;;
82352;SDS011;71954;47.430;18.920;2023-08-06T04:07:20;9.05;;;4.90;;
82352;SDS011;71954;47.430;18.920;2023-08-06T04:09:59;6.95;;;4.00;;
82352;SDS011;71954;47.430;18.920;2023-08-06T04:12:27;7.78;;;3.92;;
82352;SDS011;71954;47.430;18.920;2023-08-06T04:17:21;7.53;;;4.63;;
82352;SDS011;71954;47.430;18.920;2023-08-06T04:19:51;5.90;;;4.05;;
82352;SDS011;71954;47.430;18.920;2023-08-06T04:22:19;6.35;;;3.78;;
82352;SDS011;71954;47.430;18.920;2023-08-06T04:24:46;6.57;;;3.50;;
82352;SDS011;71954;47.430;18.920;2023-08-06T04:27:14;5.15;;;1.88;;
82352;SDS011;71954;47.430;18.920;2023-08-06T04:29:41;4.82;;;1.98;;
82352;SDS011;71954;47.430;18.920;2023-08-06T04:32:08;3.22;;;2.38;;
82352;SDS011;71954;47.430;18.920;2023-08-06T04:34:36;4.00;;;2.60;;
82352;SDS011;71954;47.430;18.920;2023-08-06T04:37:03;4.22;;;2.45;;
82352;SDS011;71954;47.430;18.920;2023-08-06T04:39:31;4.47;;;2.63;;
82352;SDS011;71954;47.430;18.920;2023-08-06T04:44:24;3.45;;;2.25;;
82352;SDS011;71954;47.430;18.920;2023-08-06T04:46:50;4.25;;;2.22;;
82352;SDS011;71954;47.430;18.920;2023-08-06T04:49:17;4.38;;;2.50;;
82352;SDS011;71954;47.430;18.920;2023-08-06T04:51:44;3.83;;;1.88;;
82352;SDS011;71954;47.430;18.920;2023-08-06T04:54:11;2.97;;;1.60;;
82352;SDS011;71954;47.430;18.920;2023-08-06T04:56:38;6.25;;;1.02;;
82352;SDS011;71954;47.430;18.920;2023-08-06T04:59:04;2.25;;;1.15;;
82352;SDS011;71954;47.430;18.920;2023-08-06T05:01:32;2.47;;;0.88;;
82352;SDS011;71954;47.430;18.920;2023-08-06T05:03:58;2.45;;;1.58;;
82352;SDS011;71954;47.430;18.920;2023-08-06T05:06:25;3.10;;;0.90;;
82352;SDS011;71954;47.430;18.920;2023-08-06T05:08:51;1.98;;;0.70;;
82352;SDS011;71954;47.430;18.920;2023-08-06T05:11:18;1.38;;;0.70;;
82352;SDS011;71954;47.430;18.920;2023-08-06T05:13:45;1.30;;;0.60;;
82352;SDS011;71954;47.430;18.920;2023-08-06T05:16:11;1.17;;;0.70;;
82352;SDS011;71954;47.430;18.920;2023-08-06T05:18:38;1.95;;;0.80;;
82352;SDS011;71954;47.430;18.920;2023-08-06T05:21:05;0.95;;;0.60;;
82352;SDS011;71954;47.430;18.920;2023-08-06T05:23:32;1.00;;;0.70;;
82352;SDS011;71954;47.430;18.920;2023-08-06T05:25:58;1.20;;;0.60;;
82352;SDS011;71954;47.430;18.920;2023-08-06T05:28:25;0.75;;;0.50;;
82352;SDS011;71954;47.430;18.920;2023-08-06T05:30:51;1.25;;;0.47;;
82352;SDS011;71954;47.430;18.920;2023-08-06T05:33:18;0.63;;;0.10;;
82352;SDS011;71954;47.430;18.920;2023-08-06T05:35:45;0.77;;;0.50;;
82352;SDS011;71954;47.430;18.920;2023-08-06T05:38:11;0.82;;;0.65;;
82352;SDS011;71954;47.430;18.920;2023-08-06T05:40:38;0.60;;;0.10;;
82352;SDS011;71954;47.430;18.920;2023-08-06T05:43:04;1.10;;;0.50;;
82352;SDS011;71954;47.430;18.920;2023-08-06T05:45:31;0.68;;;0.40;;
82352;SDS011;71954;47.430;18.920;2023-08-06T05:47:58;1.23;;;0.17;;
82352;SDS011;71954;47.430;18.920;2023-08-06T05:52:51;0.95;;;0.73;;
82352;SDS011;71954;47.430;18.920;2023-08-06T05:55:19;1.02;;;0.80;;
82352;SDS011;71954;47.430;18.920;2023-08-06T05:57:46;1.13;;;0.60;;
82352;SDS011;71954;47.430;18.920;2023-08-06T06:00:13;0.90;;;0.60;;
82352;SDS011;71954;47.430;18.920;2023-08-06T06:02:40;1.13;;;0.73;;
82352;SDS011;71954;47.430;18.920;2023-08-06T06:05:07;0.88;;;0.30;;
82352;SDS011;71954;47.430;18.920;2023-08-06T06:10:00;1.48;;;1.25;;
82352;SDS011;71954;47.430;18.920;2023-08-06T06:12:27;1.35;;;0.45;;
82352;SDS011;71954;47.430;18.920;2023-08-06T06:14:53;2.40;;;1.17;;
82352;SDS011;71954;47.430;18.920;2023-08-06T06:17:20;2.33;;;1.63;;
82352;SDS011;71954;47.430;18.920;2023-08-06T06:19:47;1.50;;;1.00;;
82352;SDS011;71954;47.430;18.920;2023-08-06T06:22:14;1.70;;;1.15;;
82352;SDS011;71954;47.430;18.920;2023-08-06T06:24:40;1.77;;;0.95;;
82352;SDS011;71954;47.430;18.920;2023-08-06T06:27:07;1.60;;;1.02;;
82352;SDS011;71954;47.430;18.920;2023-08-06T06:29:34;1.50;;;0.90;;
82352;SDS011;71954;47.430;18.920;2023-08-06T06:32:00;2.17;;;0.95;;
82352;SDS011;71954;47.430;18.920;2023-08-06T06:34:27;0.95;;;0.57;;
82352;SDS011;71954;47.430;18.920;2023-08-06T06:36:53;1.55;;;0.95;;
82352;SDS011;71954;47.430;18.920;2023-08-06T06:39:20;1.75;;;0.60;;
82352;SDS011;71954;47.430;18.920;2023-08-06T06:44:14;1.60;;;1.08;;
82352;SDS011;71954;47.430;18.920;2023-08-06T06:46:41;1.52;;;0.90;;
82352;SDS011;71954;47.430;18.920;2023-08-06T06:49:07;1.60;;;0.90;;
82352;SDS011;71954;47.430;18.920;2023-08-06T06:51:34;1.42;;;0.80;;
82352;SDS011;71954;47.430;18.920;2023-08-06T06:54:02;0.80;;;0.40;;
82352;SDS011;71954;47.430;18.920;2023-08-06T06:56:29;1.55;;;0.93;;
82352;SDS011;71954;47.430;18.920;2023-08-06T06:58:55;1.05;;;0.70;;
82352;SDS011;71954;47.430;18.920;2023-08-06T07:01:22;1.15;;;0.90;;
82352;SDS011;71954;47.430;18.920;2023-08-06T07:03:49;1.10;;;0.60;;
82352;SDS011;71954;47.430;18.920;2023-08-06T07:06:15;1.40;;;0.80;;
82352;SDS011;71954;47.430;18.920;2023-08-06T07:08:44;0.85;;;0.47;;
82352;SDS011;71954;47.430;18.920;2023-08-06T07:11:11;0.47;;;0.20;;
82352;SDS011;71954;47.430;18.920;2023-08-06T07:13:38;0.73;;;0.40;;
82352;SDS011;71954;47.430;18.920;2023-08-06T07:16:04;0.75;;;0.40;;
82352;SDS011;71954;47.430;18.920;2023-08-06T07:18:34;0.73;;;0.55;;
82352;SDS011;71954;47.430;18.920;2023-08-06T07:21:00;0.70;;;0.50;;
82352;SDS011;71954;47.430;18.920;2023-08-06T07:23:27;0.88;;;0.20;;
82352;SDS011;71954;47.430;18.920;2023-08-06T07:25:54;0.95;;;0.55;;
82352;SDS011;71954;47.430;18.920;2023-08-06T07:28:20;0.35;;;0.25;;
82352;SDS011;71954;47.430;18.920;2023-08-06T07:30:47;1.73;;;0.43;;
82352;SDS011;71954;47.430;18.920;2023-08-06T07:33:14;0.95;;;0.60;;
82352;SDS011;71954;47.430;18.920;2023-08-06T07:35:40;0.75;;;0.52;;
82352;SDS011;71954;47.430;18.920;2023-08-06T07:38:07;1.15;;;0.45;;
82352;SDS011;71954;47.430;18.920;2023-08-06T07:40:35;1.00;;;0.52;;
82352;SDS011;71954;47.430;18.920;2023-08-06T07:43:03;0.85;;;0.52;;
82352;SDS011;71954;47.430;18.920;2023-08-06T07:45:33;0.17;;;0.10;;
82352;SDS011;71954;47.430;18.920;2023-08-06T07:48:01;0.30;;;0.13;;
82352;SDS011;71954;47.430;18.920;2023-08-06T07:50:28;0.90;;;0.60;;
82352;SDS011;71954;47.430;18.920;2023-08-06T07:55:21;0.20;;;0.20;;
82352;SDS011;71954;47.430;18.920;2023-08-06T07:57:48;0.68;;;0.28;;
82352;SDS011;71954;47.430;18.920;2023-08-06T08:00:14;3.28;;;0.65;;
82352;SDS011;71954;47.430;18.920;2023-08-06T08:02:41;1.35;;;0.65;;
82352;SDS011;71954;47.430;18.920;2023-08-06T08:07:35;0.95;;;0.60;;
82352;SDS011;71954;47.430;18.920;2023-08-06T08:10:01;0.52;;;0.30;;
82352;SDS011;71954;47.430;18.920;2023-08-06T08:12:28;0.70;;;0.32;;
82352;SDS011;71954;47.430;18.920;2023-08-06T08:14:54;2.97;;;0.82;;
82352;SDS011;71954;47.430;18.920;2023-08-06T08:17:21;1.27;;;0.43;;
82352;SDS011;71954;47.430;18.920;2023-08-06T08:19:48;0.60;;;0.40;;
82352;SDS011;71954;47.430;18.920;2023-08-06T08:24:41;1.15;;;0.65;;
82352;SDS011;71954;47.430;18.920;2023-08-06T08:27:08;1.52;;;0.70;;
82352;SDS011;71954;47.430;18.920;2023-08-06T08:29:34;1.10;;;0.70;;
82352;SDS011;71954;47.430;18.920;2023-08-06T08:32:01;1.42;;;1.15;;
82352;SDS011;71954;47.430;18.920;2023-08-06T08:34:27;1.33;;;0.60;;
82352;SDS011;71954;47.430;18.920;2023-08-06T08:36:54;0.93;;;0.32;;
82352;SDS011;71954;47.430;18.920;2023-08-06T08:39:20;2.55;;;0.75;;
82352;SDS011;71954;47.430;18.920;2023-08-06T08:41:47;0.77;;;0.40;;
82352;SDS011;71954;47.430;18.920;2023-08-06T08:44:14;1.08;;;0.50;;
82352;SDS011;71954;47.430;18.920;2023-08-06T08:46:43;1.38;;;0.80;;
82352;SDS011;71954;47.430;18.920;2023-08-06T08:49:11;1.80;;;0.85;;
82352;SDS011;71954;47.430;18.920;2023-08-06T08:51:38;1.90;;;1.00;;
82352;SDS011;71954;47.430;18.920;2023-08-06T08:54:04;1.95;;;1.23;;
82352;SDS011;71954;47.430;18.920;2023-08-06T08:56:34;1.70;;;1.10;;
82352;SDS011;71954;47.430;18.920;2023-08-06T08:59:01;2.35;;;1.20;;
82352;SDS011;71954;47.430;18.920;2023-08-06T09:01:28;3.13;;;1.27;;
82352;SDS011;71954;47.430;18.920;2023-08-06T09:03:55;1.63;;;0.80;;
82352;SDS011;71954;47.430;18.920;2023-08-06T09:06:24;1.83;;;1.42;;
82352;SDS011;71954;47.430;18.920;2023-08-06T09:09:01;1.80;;;1.15;;
82352;SDS011;71954;47.430;18.920;2023-08-06T09:11:33;3.72;;;1.55;;
82352;SDS011;71954;47.430;18.920;2023-08-06T09:14:07;2.13;;;1.40;;
82352;SDS011;71954;47.430;18.920;2023-08-06T09:16:35;2.33;;;1.55;;
82352;SDS011;71954;47.430;18.920;2023-08-06T09:19:08;2.10;;;1.70;;
82352;SDS011;71954;47.430;18.920;2023-08-06T09:21:36;2.03;;;0.95;;
82352;SDS011;71954;47.430;18.920;2023-08-06T09:24:22;1.88;;;1.00;;
82352;SDS011;71954;47.430;18.920;2023-08-06T09:26:49;1.98;;;1.42;;
82352;SDS011;71954;47.430;18.920;2023-08-06T09:29:15;2.05;;;0.80;;
82352;SDS011;71954;47.430;18.920;2023-08-06T09:31:43;2.65;;;1.30;;
82352;SDS011;71954;47.430;18.920;2023-08-06T09:34:19;2.30;;;1.10;;
82352;SDS011;71954;47.430;18.920;2023-08-06T09:36:48;1.90;;;1.00;;
82352;SDS011;71954;47.430;18.920;2023-08-06T09:39:18;1.75;;;1.10;;
82352;SDS011;71954;47.430;18.920;2023-08-06T09:41:46;2.00;;;1.35;;
82352;SDS011;71954;47.430;18.920;2023-08-06T09:44:21;2.22;;;0.57;;
82352;SDS011;71954;47.430;18.920;2023-08-06T09:46:53;1.45;;;0.85;;
82352;SDS011;71954;47.430;18.920;2023-08-06T09:49:27;1.98;;;1.00;;
82352;SDS011;71954;47.430;18.920;2023-08-06T09:52:07;1.23;;;0.50;;
82352;SDS011;71954;47.430;18.920;2023-08-06T09:54:38;1.33;;;0.82;;
82352;SDS011;71954;47.430;18.920;2023-08-06T09:57:05;1.50;;;0.93;;
82352;SDS011;71954;47.430;18.920;2023-08-06T09:59:34;1.17;;;0.52;;
82352;SDS011;71954;47.430;18.920;2023-08-06T10:02:03;1.88;;;0.93;;
82352;SDS011;71954;47.430;18.920;2023-08-06T10:04:39;1.58;;;1.00;;
82352;SDS011;71954;47.430;18.920;2023-08-06T10:07:07;1.63;;;0.95;;
82352;SDS011;71954;47.430;18.920;2023-08-06T10:09:34;3.80;;;1.20;;
82352;SDS011;71954;47.430;18.920;2023-08-06T10:12:02;1.17;;;0.70;;
82352;SDS011;71954;47.430;18.920;2023-08-06T10:14:33;3.05;;;1.17;;
82352;SDS011;71954;47.430;18.920;2023-08-06T10:17:03;1.88;;;0.55;;
82352;SDS011;71954;47.430;18.920;2023-08-06T10:19:30;1.25;;;0.77;;
82352;SDS011;71954;47.430;18.920;2023-08-06T10:24:54;1.35;;;0.77;;
82352;SDS011;71954;47.430;18.920;2023-08-06T10:27:23;1.40;;;0.52;;
82352;SDS011;71954;47.430;18.920;2023-08-06T10:30:14;1.10;;;0.35;;
82352;SDS011;71954;47.430;18.920;2023-08-06T10:32:56;1.60;;;0.68;;
82352;SDS011;71954;47.430;18.920;2023-08-06T10:35:30;1.52;;;0.43;;
82352;SDS011;71954;47.430;18.920;2023-08-06T10:40:50;1.27;;;0.77;;
82352;SDS011;71954;47.430;18.920;2023-08-06T10:43:28;1.55;;;0.98;;
82352;SDS011;71954;47.430;18.920;2023-08-06T10:46:11;1.75;;;1.05;;
82352;SDS011;71954;47.430;18.920;2023-08-06T10:48:47;1.65;;;1.05;;
82352;SDS011;71954;47.430;18.920;2023-08-06T10:51:13;1.80;;;1.02;;
82352;SDS011;71954;47.430;18.920;2023-08-06T10:53:41;1.90;;;0.60;;
82352;SDS011;71954;47.430;18.920;2023-08-06T10:56:16;1.95;;;0.75;;
82352;SDS011;71954;47.430;18.920;2023-08-06T10:58:46;3.45;;;1.02;;
82352;SDS011;71954;47.430;18.920;2023-08-06T11:01:14;2.28;;;1.17;;
82352;SDS011;71954;47.430;18.920;2023-08-06T11:03:42;1.85;;;1.10;;
82352;SDS011;71954;47.430;18.920;2023-08-06T11:06:10;4.13;;;1.10;;
82352;SDS011;71954;47.430;18.920;2023-08-06T11:08:46;3.35;;;1.40;;
82352;SDS011;71954;47.430;18.920;2023-08-06T11:11:15;1.58;;;0.80;;
82352;SDS011;71954;47.430;18.920;2023-08-06T11:13:43;1.27;;;0.68;;
82352;SDS011;71954;47.430;18.920;2023-08-06T11:16:16;2.05;;;1.00;;
82352;SDS011;71954;47.430;18.920;2023-08-06T11:18:45;2.03;;;1.10;;
82352;SDS011;71954;47.430;18.920;2023-08-06T11:21:12;1.77;;;1.05;;
82352;SDS011;71954;47.430;18.920;2023-08-06T11:26:07;1.77;;;0.77;;
82352;SDS011;71954;47.430;18.920;2023-08-06T11:28:33;1.77;;;1.00;;
82352;SDS011;71954;47.430;18.920;2023-08-06T11:31:00;1.60;;;1.02;;
82352;SDS011;71954;47.430;18.920;2023-08-06T11:33:28;1.48;;;0.80;;
82352;SDS011;71954;47.430;18.920;2023-08-06T11:35:56;1.60;;;0.70;;
82352;SDS011;71954;47.430;18.920;2023-08-06T11:38:28;1.90;;;0.63;;
82352;SDS011;71954;47.430;18.920;2023-08-06T11:40:55;1.60;;;0.93;;
82352;SDS011;71954;47.430;18.920;2023-08-06T11:45:49;1.48;;;0.88;;
82352;SDS011;71954;47.430;18.920;2023-08-06T11:48:21;1.42;;;1.10;;
82352;SDS011;71954;47.430;18.920;2023-08-06T11:50:47;0.90;;;0.40;;
82352;SDS011;71954;47.430;18.920;2023-08-06T11:53:14;1.67;;;1.00;;
82352;SDS011;71954;47.430;18.920;2023-08-06T11:55:41;3.40;;;1.45;;
82352;SDS011;71954;47.430;18.920;2023-08-06T11:58:09;1.92;;;1.10;;
82352;SDS011;71954;47.430;18.920;2023-08-06T12:00:38;2.10;;;1.42;;
82352;SDS011;71954;47.430;18.920;2023-08-06T12:03:05;1.50;;;1.10;;
82352;SDS011;71954;47.430;18.920;2023-08-06T12:05:32;1.98;;;1.20;;
82352;SDS011;71954;47.430;18.920;2023-08-06T12:08:04;1.92;;;1.10;;
82352;SDS011;71954;47.430;18.920;2023-08-06T12:10:31;1.88;;;0.73;;
82352;SDS011;71954;47.430;18.920;2023-08-06T12:12:58;2.53;;;1.10;;
82352;SDS011;71954;47.430;18.920;2023-08-06T12:15:26;2.40;;;1.50;;
82352;SDS011;71954;47.430;18.920;2023-08-06T12:17:52;1.58;;;1.10;;
82352;SDS011;71954;47.430;18.920;2023-08-06T12:20:19;2.05;;;1.23;;
82352;SDS011;71954;47.430;18.920;2023-08-06T12:22:46;1.77;;;1.10;;
82352;SDS011;71954;47.430;18.920;2023-08-06T12:27:43;2.05;;;1.30;;
82352;SDS011;71954;47.430;18.920;2023-08-06T12:30:11;1.88;;;1.10;;
82352;SDS011;71954;47.430;18.920;2023-08-06T12:32:39;1.73;;;0.93;;
82352;SDS011;71954;47.430;18.920;2023-08-06T12:35:06;2.50;;;1.00;;
82352;SDS011;71954;47.430;18.920;2023-08-06T12:37:34;2.15;;;0.88;;
82352;SDS011;71954;47.430;18.920;2023-08-06T12:40:01;2.75;;;1.00;;
82352;SDS011;71954;47.430;18.920;2023-08-06T12:42:49;4.00;;;1.10;;
82352;SDS011;71954;47.430;18.920;2023-08-06T12:45:17;2.05;;;1.20;;
82352;SDS011;71954;47.430;18.920;2023-08-06T12:47:47;1.80;;;0.77;;
82352;SDS011;71954;47.430;18.920;2023-08-06T12:50:15;2.50;;;1.40;;
82352;SDS011;71954;47.430;18.920;2023-08-06T12:52:43;2.35;;;1.60;;
82352;SDS011;71954;47.430;18.920;2023-08-06T12:55:10;2.25;;;1.40;;
82352;SDS011;71954;47.430;18.920;2023-08-06T12:57:36;3.88;;;1.40;;
82352;SDS011;71954;47.430;18.920;2023-08-06T13:00:22;3.17;;;1.42;;
82352;SDS011;71954;47.430;18.920;2023-08-06T13:02:48;2.28;;;1.70;;
82352;SDS011;71954;47.430;18.920;2023-08-06T13:07:42;1.98;;;1.20;;
82352;SDS011;71954;47.430;18.920;2023-08-06T13:10:08;2.30;;;1.33;;
82352;SDS011;71954;47.430;18.920;2023-08-06T13:12:35;3.58;;;1.45;;
82352;SDS011;71954;47.430;18.920;2023-08-06T13:15:02;2.63;;;1.50;;
82352;SDS011;71954;47.430;18.920;2023-08-06T13:17:29;2.50;;;1.60;;
82352;SDS011;71954;47.430;18.920;2023-08-06T13:19:55;2.50;;;1.25;;
82352;SDS011;71954;47.430;18.920;2023-08-06T13:22:22;2.50;;;1.60;;
82352;SDS011;71954;47.430;18.920;2023-08-06T13:24:48;2.30;;;1.10;;
82352;SDS011;71954;47.430;18.920;2023-08-06T13:27:15;2.38;;;1.13;;
82352;SDS011;71954;47.430;18.920;2023-08-06T13:29:41;3.15;;;1.50;;
82352;SDS011;71954;47.430;18.920;2023-08-06T13:32:08;2.40;;;1.40;;
82352;SDS011;71954;47.430;18.920;2023-08-06T13:34:35;3.08;;;1.45;;
82352;SDS011;71954;47.430;18.920;2023-08-06T13:37:01;1.92;;;1.17;;
82352;SDS011;71954;47.430;18.920;2023-08-06T13:39:28;3.70;;;1.67;;
82352;SDS011;71954;47.430;18.920;2023-08-06T13:41:55;2.40;;;1.60;;
82352;SDS011;71954;47.430;18.920;2023-08-06T13:44:21;2.40;;;1.50;;
82352;SDS011;71954;47.430;18.920;2023-08-06T13:46:48;2.70;;;1.52;;
82352;SDS011;71954;47.430;18.920;2023-08-06T13:49:15;2.80;;;1.75;;
82352;SDS011;71954;47.430;18.920;2023-08-06T13:51:41;2.65;;;1.17;;
82352;SDS011;71954;47.430;18.920;2023-08-06T13:54:08;2.00;;;1.10;;
82352;SDS011;71954;47.430;18.920;2023-08-06T13:56:34;2.90;;;1.42;;
82352;SDS011;71954;47.430;18.920;2023-08-06T13:59:02;3.70;;;1.50;;
82352;SDS011;71954;47.430;18.920;2023-08-06T14:01:29;3.78;;;1.83;;
82352;SDS011;71954;47.430;18.920;2023-08-06T14:04:14;2.85;;;1.75;;
82352;SDS011;71954;47.430;18.920;2023-08-06T14:06:41;2.60;;;1.30;;
82352;SDS011;71954;47.430;18.920;2023-08-06T14:11:34;3.83;;;1.73;;
82352;SDS011;71954;47.430;18.920;2023-08-06T14:14:01;3.80;;;1.20;;
82352;SDS011;71954;47.430;18.920;2023-08-06T14:16:29;2.53;;;1.88;;
82352;SDS011;71954;47.430;18.920;2023-08-06T14:18:56;2.65;;;1.70;;
82352;SDS011;71954;47.430;18.920;2023-08-06T14:21:23;2.38;;;1.50;;
82352;SDS011;71954;47.430;18.920;2023-08-06T14:23:49;2.78;;;1.85;;
82352;SDS011;71954;47.430;18.920;2023-08-06T14:26:16;2.45;;;1.40;;
82352;SDS011;71954;47.430;18.920;2023-08-06T14:28:43;2.40;;;1.83;;
82352;SDS011;71954;47.430;18.920;2023-08-06T14:33:37;3.10;;;1.75;;
82352;SDS011;71954;47.430;18.920;2023-08-06T14:36:04;2.33;;;1.48;;
82352;SDS011;71954;47.430;18.920;2023-08-06T14:40:58;2.65;;;1.67;;
82352;SDS011;71954;47.430;18.920;2023-08-06T14:43:25;2.35;;;1.20;;
82352;SDS011;71954;47.430;18.920;2023-08-06T14:45:52;3.55;;;1.52;;
82352;SDS011;71954;47.430;18.920;2023-08-06T14:48:18;2.65;;;1.63;;
82352;SDS011;71954;47.430;18.920;2023-08-06T14:50:45;2.72;;;1.73;;
82352;SDS011;71954;47.430;18.920;2023-08-06T14:53:11;2.72;;;1.70;;
82352;SDS011;71954;47.430;18.920;2023-08-06T14:55:39;2.85;;;1.30;;
82352;SDS011;71954;47.430;18.920;2023-08-06T14:58:06;2.40;;;1.55;;
82352;SDS011;71954;47.430;18.920;2023-08-06T15:00:32;4.07;;;1.42;;
82352;SDS011;71954;47.430;18.920;2023-08-06T15:02:59;2.88;;;1.67;;
82352;SDS011;71954;47.430;18.920;2023-08-06T15:05:25;2.95;;;1.92;;
82352;SDS011;71954;47.430;18.920;2023-08-06T15:10:19;2.88;;;1.63;;
82352;SDS011;71954;47.430;18.920;2023-08-06T15:12:53;2.80;;;1.85;;
82352;SDS011;71954;47.430;18.920;2023-08-06T15:17:46;2.42;;;1.40;;
82352;SDS011;71954;47.430;18.920;2023-08-06T15:20:13;2.55;;;1.73;;
82352;SDS011;71954;47.430;18.920;2023-08-06T15:22:40;2.63;;;1.58;;
82352;SDS011;71954;47.430;18.920;2023-08-06T15:27:33;2.85;;;1.75;;
82352;SDS011;71954;47.430;18.920;2023-08-06T15:30:02;3.28;;;1.48;;
82352;SDS011;71954;47.430;18.920;2023-08-06T15:32:29;3.78;;;1.65;;
82352;SDS011;71954;47.430;18.920;2023-08-06T15:34:56;2.50;;;1.48;;
82352;SDS011;71954;47.430;18.920;2023-08-06T15:37:22;3.03;;;1.80;;
82352;SDS011;71954;47.430;18.920;2023-08-06T15:39:49;2.60;;;1.63;;